Tenacious — ZQHM2 — position and weather

sailwx.info

Track history (hours):
 
Tides and Currents Weather Stations Pressure Air Temp Water Temp Dewpoint Dewpoint Depression Visibility Wind Speed Wind Dir Waves Ship Positions

Tenacious (United Kingdom)

Ship's website: http://www.jst.org.uk/

Last reported at 2018-Nov-07 12:19 UTC. Time now 2018-Dec-18 11:27 UTC.
Position N 51°30' E 000°04'.
Warning: this ship's position is 40 days out of date.

Length 65 m; beam 10.6 m; draft 4.6 m.

Type: Sailing vessel. MMSI: 235000230.

Date/timePositionNaut miles runAvg speedWind from/ knotsBaromVisibWave heightAir tempDewpointWater temp
2018-Nov-07 12:19N 51°30' E 000°04'2 7.0
2018-Nov-07 12:02N 51°31' E 000°06'3 6.2
2018-Nov-07 11:32N 51°29' E 000°11'3 6.9
2018-Nov-07 11:03N 51°28' E 000°16'3 6.3
2018-Nov-07 10:32N 51°27' E 000°21'3 5.9
2018-Nov-07 10:03N 51°27' E 000°25'2 3.3
2018-Nov-07 09:32N 51°28' E 000°27'2 5.0
2018-Nov-07 09:03N 51°30' E 000°30'4 7.0
2018-Nov-07 08:32N 51°30' E 000°36'2 4.6
2018-Nov-07 08:00N 51°30' E 000°39'0 0.1
2018-Nov-07 07:27N 51°30' E 000°39'0 0.1
2018-Nov-07 07:00N 51°30' E 000°40'0 0.0
2018-Nov-07 06:30N 51°30' E 000°40'0 0.2
2018-Nov-07 06:00N 51°30' E 000°40'0 0.0
2018-Nov-07 05:30N 51°30' E 000°40'0 0.0
2018-Nov-07 05:00N 51°30' E 000°40'0 0.0
2018-Nov-07 04:30N 51°30' E 000°40'0 0.0
2018-Nov-06 23:30N 51°30' E 000°39'0 0.1
2018-Nov-06 23:03N 51°30' E 000°39'0 0.0
2018-Nov-06 23:00N 51°30' E 000°39'0 0.0
2018-Nov-06 22:00N 51°30' E 000°39'0 0.1
2018-Nov-06 21:30N 51°30' E 000°39'0 0.0
2018-Nov-06 21:03N 51°30' E 000°39'0 0.0
2018-Nov-06 21:00N 51°30' E 000°39'0 0.0
2018-Nov-06 20:30N 51°30' E 000°39'0 0.0
2018-Nov-06 20:03N 51°30' E 000°39'0 0.0
2018-Nov-06 20:00N 51°30' E 000°39'0 0.0
2018-Nov-06 19:27N 51°30' E 000°39'0 0.1
2018-Nov-06 19:03N 51°30' E 000°40'0 0.1
2018-Nov-06 19:00N 51°30' E 000°40'0 0.1
2018-Nov-06 18:30N 51°30' E 000°40'0 0.1
2018-Nov-06 18:03N 51°30' E 000°40'0 0.2
2018-Nov-06 18:00N 51°30' E 000°40'0 0.0
2018-Nov-06 17:30N 51°30' E 000°40'0 0.0
2018-Nov-06 17:03N 51°30' E 000°40'0 0.0
2018-Nov-06 17:00N 51°30' E 000°40'0 0.0
2018-Nov-06 16:30N 51°30' E 000°40'0 0.0
2018-Nov-06 16:03N 51°30' E 000°40'0 0.0
2018-Nov-06 16:00N 51°30' E 000°40'0 0.0
2018-Nov-06 15:30N 51°30' E 000°40'0 0.0
2018-Nov-06 15:03N 51°30' E 000°40'0 0.0
2018-Nov-06 15:00N 51°30' E 000°40'0 0.0
2018-Nov-06 14:30N 51°30' E 000°40'0 0.0
2018-Nov-06 14:00N 51°30' E 000°40'0 0.1
2018-Nov-06 13:30N 51°30' E 000°40'0 0.0
2018-Nov-06 13:03N 51°30' E 000°40'0 0.0
2018-Nov-06 13:00N 51°30' E 000°40'0 0.1
2018-Nov-06 12:30N 51°30' E 000°40'0 0.1
2018-Nov-06 12:03N 51°30' E 000°40'0 0.0
2018-Nov-06 12:00N 51°30' E 000°40'0 0.1
2018-Nov-06 11:30N 51°30' E 000°39'0 0.0
2018-Nov-06 11:00N 51°30' E 000°39'0 0.0
2018-Nov-06 10:30N 51°30' E 000°39'0 0.0
2018-Nov-06 10:00N 51°30' E 000°39'0 0.0
2018-Nov-06 09:30N 51°30' E 000°39'0 0.0
2018-Nov-06 09:03N 51°30' E 000°39'0 0.1
2018-Nov-06 09:00N 51°30' E 000°39'0 0.0
2018-Nov-06 08:30N 51°30' E 000°39'0 0.0
2018-Nov-06 08:03N 51°30' E 000°39'0 0.0
2018-Nov-06 08:00N 51°30' E 000°39'0 0.0
2018-Nov-06 07:30N 51°30' E 000°39'0 0.0
2018-Nov-06 07:03N 51°30' E 000°40'0 0.0
2018-Nov-06 07:00N 51°30' E 000°40'0 0.0
2018-Nov-06 06:30N 51°30' E 000°40'0 0.1
2018-Nov-06 06:03N 51°30' E 000°40'0 0.3
2018-Nov-06 06:00N 51°30' E 000°40'0 0.0
2018-Nov-06 05:30N 51°30' E 000°40'0 0.0
2018-Nov-06 05:03N 51°30' E 000°40'0 0.2
2018-Nov-06 05:00N 51°30' E 000°40'0 0.0
2018-Nov-06 04:30N 51°30' E 000°40'0 0.0
2018-Nov-06 04:00N 51°30' E 000°40'0 0.0
2018-Nov-06 03:30N 51°30' E 000°40'0 0.0
2018-Nov-06 03:03N 51°30' E 000°40'0 0.0
2018-Nov-06 03:00N 51°30' E 000°40'0 0.0
2018-Nov-06 02:30N 51°30' E 000°40'0 0.0
2018-Nov-06 02:03N 51°30' E 000°40'0 0.2
2018-Nov-06 02:00N 51°30' E 000°40'0 0.0
2018-Nov-06 01:30N 51°30' E 000°40'0 0.0
2018-Nov-06 00:30N 51°30' E 000°40'0 0.1
2018-Nov-05 23:27N 51°30' E 000°39'0 0.0
2018-Nov-05 23:03N 51°30' E 000°39'0 0.0
2018-Nov-05 23:00N 51°30' E 000°39'0 0.0
2018-Nov-05 22:27N 51°30' E 000°39'0 0.0
2018-Nov-05 22:03N 51°30' E 000°39'0 0.0
2018-Nov-05 22:00N 51°30' E 000°39'0 0.0
2018-Nov-05 21:30N 51°30' E 000°39'0 0.0
2018-Nov-05 21:03N 51°30' E 000°39'0 0.0
2018-Nov-05 21:00N 51°30' E 000°39'0 0.0
2018-Nov-05 20:30N 51°30' E 000°39'0 0.0
2018-Nov-05 20:03N 51°30' E 000°39'0 0.0
2018-Nov-05 20:00N 51°30' E 000°39'0 0.0
2018-Nov-05 19:30N 51°30' E 000°39'0 0.0
2018-Nov-05 19:03N 51°30' E 000°39'0 0.0
2018-Nov-05 19:00N 51°30' E 000°39'0 0.0
2018-Nov-05 18:30N 51°30' E 000°39'0 0.0
2018-Nov-05 18:03N 51°30' E 000°39'0 0.0
2018-Nov-05 18:00N 51°30' E 000°39'0 0.1
2018-Nov-05 17:27N 51°30' E 000°40'0 0.1
2018-Nov-05 17:03N 51°30' E 000°40'0 0.0
2018-Nov-05 16:57N 51°30' E 000°40'0 0.0
2018-Nov-05 16:30N 51°30' E 000°40'2 5.5
2018-Nov-05 16:03N 51°30' E 000°43'0 7.2
2018-Nov-05 16:00N 51°30' E 000°44'4 7.2
2018-Nov-05 15:30N 51°30' E 000°50'3 7.1
2018-Nov-05 15:03N 51°29' E 000°55'0 7.0
2018-Nov-05 15:00N 51°29' E 000°55'3 6.8
2018-Nov-05 14:30N 51°30' E 001°01'2 5.4
2018-Nov-05 14:03N 51°30' E 001°05'4 6.6
2018-Nov-05 13:30N 51°29' E 001°10'3 6.4
2018-Nov-05 13:03N 51°29' E 001°15'0 6.5
2018-Nov-05 13:00N 51°29' E 001°16'3 6.7
2018-Nov-05 12:31N 51°29' E 001°21'3 7.1
2018-Nov-05 12:03N 51°28' E 001°26'0 7.3
2018-Nov-05 12:01N 51°28' E 001°26'4 8.0
2018-Nov-05 11:30N 51°25' E 001°31'4 8.3
2018-Nov-05 11:04N 51°22' E 001°35'110.2
2018-Nov-05 11:01N 51°22' E 001°35'510.7
2018-Nov-05 10:30N 51°17' E 001°38'4 9.8
2018-Nov-05 10:03N 51°12' E 001°37'110.2
2018-Nov-05 10:00N 51°12' E 001°37'4 8.3
2018-Nov-05 09:30N 51°08' E 001°37'4 7.8
2018-Nov-05 09:02N 51°04' E 001°36'110.0
2018-Nov-05 08:56N 51°03' E 001°35'4 9.6
2018-Nov-05 08:30N 51°00' E 001°31'5 8.6
2018-Nov-05 07:53N 50°56' E 001°25'30 6.8
2018-Nov-05 03:29N 50°32' E 000°58'39 6.3
2018-Nov-04 21:14N 50°21' W 000°01'39 8.5
2018-Nov-04 16:42N 50°29' W 001°01'3 9.3
2018-Nov-04 16:26N 50°30' W 001°05'3 9.4
2018-Nov-04 16:03N 50°30' W 001°10'0 9.5
2018-Nov-04 16:00N 50°30' W 001°11'5 9.3
2018-Nov-04 15:31N 50°31' W 001°18'17 7.0
2018-Nov-04 13:04N 50°37' W 001°43'1 6.3
2018-Nov-04 12:59N 50°37' W 001°44'3 6.2
2018-Nov-04 12:30N 50°38' W 001°49'3 6.6
2018-Nov-04 12:02N 50°39' W 001°53'0 7.1
2018-Nov-04 12:00N 50°39' W 001°53'3 6.7
2018-Nov-04 11:30N 50°41' W 001°57'2 3.6
2018-Nov-04 10:58N 50°43' W 001°59'0 0.0
2018-Nov-04 10:28N 50°43' W 001°59'0 0.0
2018-Nov-04 09:52N 50°43' W 001°59'0 0.0
2018-Nov-04 09:22N 50°43' W 001°59'0 0.0
2018-Nov-04 08:58N 50°43' W 001°59'0 0.0
2018-Nov-04 08:16N 50°43' W 001°59'0 0.0
2018-Nov-04 07:58N 50°43' W 001°59'0 0.0
2018-Nov-04 07:28N 50°43' W 001°59'0 0.0
2018-Nov-04 06:34N 50°43' W 001°59'0 0.0
2018-Nov-04 06:04N 50°43' W 001°59'0 0.1
2018-Nov-04 05:58N 50°43' W 001°59'0 0.0
2018-Nov-04 05:22N 50°43' W 001°59'0 0.0
2018-Nov-04 04:58N 50°43' W 001°59'0 0.0
2018-Nov-04 04:28N 50°43' W 001°59'0 0.0
2018-Nov-04 02:22N 50°43' W 001°59'0 0.0
2018-Nov-04 01:58N 50°43' W 001°59'0 0.0
2018-Nov-04 01:10N 50°43' W 001°59'0 0.0
2018-Nov-04 00:34N 50°43' W 001°59'0 0.1
2018-Nov-04 00:28N 50°43' W 001°59'0 0.0
2018-Nov-03 23:46N 50°43' W 001°59'0 0.0
2018-Nov-03 18:58N 50°43' W 001°59'0 0.0
2018-Nov-03 18:28N 50°43' W 001°59'0 0.0
2018-Nov-03 18:04N 50°43' W 001°59'0 0.0
2018-Nov-03 17:52N 50°43' W 001°59'0 0.0
2018-Nov-03 17:27N 50°43' W 001°59'0 0.0
2018-Nov-03 16:39N 50°43' W 001°59'0 0.0
2018-Nov-03 16:15N 50°43' W 001°59'0 0.0
2018-Nov-03 16:03N 50°43' W 001°59'0 0.0
2018-Nov-03 15:57N 50°43' W 001°59'0 0.0
2018-Nov-03 15:27N 50°43' W 001°59'0 0.0
2018-Nov-03 14:39N 50°43' W 001°59'0 0.0
2018-Nov-03 13:39N 50°43' W 001°59'0 0.0
2018-Nov-03 13:09N 50°43' W 001°59'0 0.0
2018-Nov-03 12:57N 50°43' W 001°59'0 0.0
2018-Nov-03 12:09N 50°43' W 001°59'0 0.0
2018-Nov-03 11:57N 50°43' W 001°59'0 0.0
2018-Nov-03 11:27N 50°43' W 001°59'0 0.0
2018-Nov-03 11:03N 50°43' W 001°59'0 0.0
2018-Nov-03 10:45N 50°43' W 001°59'0 0.0
2018-Nov-03 10:27N 50°43' W 001°59'0 0.0
2018-Nov-03 09:09N 50°43' W 001°59'0 0.0
2018-Nov-03 08:51N 50°43' W 001°59'0 0.0
2018-Nov-03 08:27N 50°43' W 001°59'0 0.0
2018-Nov-03 08:03N 50°43' W 001°59'0 0.1
2018-Nov-03 07:57N 50°43' W 001°59'0 0.0
2018-Nov-03 07:27N 50°43' W 001°59'0 0.0
2018-Nov-03 06:57N 50°43' W 001°59'0 0.0
2018-Nov-03 06:09N 50°43' W 001°59'0 0.0
2018-Nov-03 05:51N 50°43' W 001°59'0 0.0
2018-Nov-03 05:27N 50°43' W 001°59'0 0.0
2018-Nov-03 05:03N 50°43' W 001°59'0 0.0
2018-Nov-03 03:33N 50°43' W 001°59'0 0.0
2018-Nov-03 01:09N 50°43' W 001°59'0 0.0
2018-Nov-03 01:03N 50°43' W 001°59'0 0.0
2018-Nov-03 00:57N 50°43' W 001°59'0 0.0
2018-Nov-03 00:21N 50°43' W 001°59'0 0.0
2018-Nov-03 00:03N 50°43' W 001°59'0 0.0
2018-Nov-02 23:57N 50°43' W 001°59'0 0.0
2018-Nov-02 23:27N 50°43' W 001°59'0 0.0
2018-Nov-02 23:03N 50°43' W 001°59'0 0.0
2018-Nov-02 22:57N 50°43' W 001°59'0 0.0
2018-Nov-02 22:21N 50°43' W 001°59'0 0.0
2018-Nov-02 21:39N 50°43' W 001°59'0 0.0
2018-Nov-02 21:03N 50°43' W 001°59'0 0.0
2018-Nov-02 20:57N 50°43' W 001°59'0 0.0
2018-Nov-02 20:27N 50°43' W 001°59'0 0.0
2018-Nov-02 20:03N 50°43' W 001°59'0 0.1
2018-Nov-02 19:57N 50°43' W 001°59'0 0.0
2018-Nov-02 19:21N 50°43' W 001°59'0 0.0
2018-Nov-02 18:57N 50°43' W 001°59'0 0.0
2018-Nov-02 18:30N 50°43' W 001°59'0 0.0
2018-Nov-02 18:03N 50°43' W 001°59'0 0.0
2018-Nov-02 18:00N 50°43' W 001°59'2 4.0
2018-Nov-02 17:31N 50°41' W 001°57'3 7.0
2018-Nov-02 17:03N 50°39' W 001°54'0 3.5
2018-Nov-02 17:00N 50°38' W 001°54'2 4.9
2018-Nov-02 16:30N 50°37' W 001°51'2 5.0
2018-Nov-02 16:03N 50°35' W 001°49'0 4.6
2018-Nov-02 16:00N 50°35' W 001°49'22 0.9
2018-Nov-01 14:16N 50°34' W 002°24'18 0.6
2018-Oct-31 09:45N 50°18' W 002°38'31 1.5
2018-Oct-30 13:54N 50°29' W 001°53'3 6.6
2018-Oct-30 13:30N 50°32' W 001°53'3 6.5
2018-Oct-30 13:03N 50°35' W 001°54'0 6.3
2018-Oct-30 13:00N 50°35' W 001°54'3 6.1
2018-Oct-30 12:30N 50°38' W 001°54'4 7.9
2018-Oct-30 12:03N 50°41' W 001°57'0 7.7
2018-Oct-30 12:00N 50°42' W 001°57'2 3.0
2018-Oct-30 11:28N 50°43' W 001°59'0 0.0
2018-Oct-30 10:58N 50°43' W 001°59'0 0.0
2018-Oct-30 10:28N 50°43' W 001°59'0 0.0
2018-Oct-30 09:52N 50°43' W 001°59'0 0.0
2018-Oct-30 09:28N 50°43' W 001°59'0 0.0
2018-Oct-30 08:52N 50°43' W 001°59'0 0.0
2018-Oct-30 08:28N 50°43' W 001°59'0 0.0
2018-Oct-30 07:58N 50°43' W 001°59'0 0.0
2018-Oct-30 07:28N 50°43' W 001°59'0 0.0
2018-Oct-30 06:58N 50°43' W 001°59'0 0.0
2018-Oct-30 06:28N 50°43' W 001°59'0 0.0
2018-Oct-30 05:58N 50°43' W 001°59'0 0.0
2018-Oct-30 05:28N 50°43' W 001°59'0 0.0
2018-Oct-30 05:04N 50°43' W 001°59'0 0.0
2018-Oct-30 04:52N 50°43' W 001°59'0 0.0
2018-Oct-30 04:28N 50°43' W 001°59'0 0.0
2018-Oct-30 03:58N 50°43' W 001°59'0 0.0
2018-Oct-30 03:27N 50°43' W 001°59'0 0.0
2018-Oct-30 02:57N 50°43' W 001°59'0 0.0
2018-Oct-30 02:21N 50°43' W 001°59'0 0.0
2018-Oct-30 01:57N 50°43' W 001°59'0 0.0
2018-Oct-30 01:27N 50°43' W 001°59'0 0.0
2018-Oct-30 01:03N 50°43' W 001°59'0 0.1
2018-Oct-30 00:57N 50°43' W 001°59'0 0.0
2018-Oct-30 00:27N 50°43' W 001°59'0 0.0
2018-Oct-30 00:03N 50°43' W 001°59'0 0.0
2018-Oct-29 23:57N 50°43' W 001°59'0 0.0
2018-Oct-29 23:27N 50°43' W 001°59'0 0.0
2018-Oct-29 23:03N 50°43' W 001°59'0 0.0
2018-Oct-29 22:57N 50°43' W 001°59'0 0.0
2018-Oct-29 22:27N 50°43' W 001°59'0 0.0
2018-Oct-29 22:03N 50°43' W 001°59'0 0.0
2018-Oct-29 21:57N 50°43' W 001°59'0 0.0
2018-Oct-29 21:27N 50°43' W 001°59'0 0.0
2018-Oct-29 20:51N 50°43' W 001°59'0 0.0
2018-Oct-29 20:21N 50°43' W 001°59'0 0.0
2018-Oct-29 20:03N 50°43' W 001°59'0 0.0
2018-Oct-29 19:57N 50°43' W 001°59'0 0.0
2018-Oct-29 19:27N 50°43' W 001°59'0 0.0
2018-Oct-29 19:03N 50°43' W 001°59'0 0.0
2018-Oct-29 18:45N 50°43' W 001°59'0 0.0
2018-Oct-29 18:27N 50°43' W 001°59'0 0.0
2018-Oct-29 18:03N 50°43' W 001°59'0 0.0
2018-Oct-29 17:57N 50°43' W 001°59'0 0.0
2018-Oct-29 17:27N 50°43' W 001°59'0 0.0
2018-Oct-29 16:57N 50°43' W 001°59'0 0.0
2018-Oct-29 16:27N 50°43' W 001°59'0 0.0
2018-Oct-29 15:51N 50°43' W 001°59'0 0.0
2018-Oct-29 15:27N 50°43' W 001°59'0 0.0
2018-Oct-29 15:03N 50°43' W 001°59'0 0.0
2018-Oct-29 14:57N 50°43' W 001°59'0 0.0
2018-Oct-29 14:21N 50°43' W 001°59'0 0.0
2018-Oct-29 13:57N 50°43' W 001°59'0 0.0
2018-Oct-29 13:27N 50°43' W 001°59'0 0.0
2018-Oct-29 13:03N 50°43' W 001°59'0 0.0
2018-Oct-29 12:57N 50°43' W 001°59'0 0.0
2018-Oct-29 12:27N 50°43' W 001°59'0 0.0
2018-Oct-29 12:03N 50°43' W 001°59'0 0.1
2018-Oct-29 11:57N 50°43' W 001°59'0 0.0
2018-Oct-29 11:21N 50°43' W 001°59'0 0.0
2018-Oct-29 11:03N 50°43' W 001°59'0 0.0
2018-Oct-29 10:39N 50°43' W 001°59'0 0.0
2018-Oct-29 10:27N 50°43' W 001°59'0 0.0
2018-Oct-29 10:03N 50°43' W 001°59'0 0.0
2018-Oct-29 09:57N 50°43' W 001°59'0 0.0
2018-Oct-29 09:27N 50°43' W 001°59'0 0.0
2018-Oct-29 09:03N 50°43' W 001°59'0 0.0
2018-Oct-29 08:39N 50°43' W 001°59'0 0.0
2018-Oct-29 08:21N 50°43' W 001°59'0 0.0
2018-Oct-29 08:03N 50°43' W 001°59'0 0.0
2018-Oct-29 07:57N 50°43' W 001°59'0 0.0
2018-Oct-29 07:27N 50°43' W 001°59'0 0.0
2018-Oct-29 07:03N 50°43' W 001°59'0 0.0
2018-Oct-29 06:57N 50°43' W 001°59'0 0.0
2018-Oct-29 06:27N 50°43' W 001°59'0 0.0
2018-Oct-29 06:03N 50°43' W 001°59'0 0.0
2018-Oct-29 05:57N 50°43' W 001°59'0 0.0
2018-Oct-29 05:27N 50°43' W 001°59'0 0.0
2018-Oct-29 05:03N 50°43' W 001°59'0 0.0
2018-Oct-29 04:51N 50°43' W 001°59'0 0.0
2018-Oct-29 04:27N 50°43' W 001°59'0 0.0
2018-Oct-29 04:03N 50°43' W 001°59'0 0.0
2018-Oct-29 03:57N 50°43' W 001°59'0 0.0
2018-Oct-29 03:27N 50°43' W 001°59'0 0.0
2018-Oct-29 03:03N 50°43' W 001°59'0 0.0
2018-Oct-29 02:57N 50°43' W 001°59'0 0.0
2018-Oct-29 02:27N 50°43' W 001°59'0 0.0
2018-Oct-29 02:03N 50°43' W 001°59'0 0.0
2018-Oct-29 01:57N 50°43' W 001°59'0 0.0
2018-Oct-29 01:27N 50°43' W 001°59'0 0.0
2018-Oct-29 01:03N 50°43' W 001°59'0 0.0
2018-Oct-29 00:57N 50°43' W 001°59'0 0.0
2018-Oct-29 00:27N 50°43' W 001°59'0 0.0
2018-Oct-29 00:03N 50°43' W 001°59'0 0.0
2018-Oct-28 23:57N 50°43' W 001°59'0 0.0
2018-Oct-28 23:21N 50°43' W 001°59'0 0.0
2018-Oct-28 23:03N 50°43' W 001°59'0 0.0
2018-Oct-28 22:57N 50°43' W 001°59'0 0.0
2018-Oct-28 22:27N 50°43' W 001°59'0 0.0
2018-Oct-28 21:57N 50°43' W 001°59'0 0.0
2018-Oct-28 21:27N 50°43' W 001°59'0 0.0
2018-Oct-28 21:03N 50°43' W 001°59'0 0.0
2018-Oct-28 20:57N 50°43' W 001°59'0 0.0
2018-Oct-28 20:27N 50°43' W 001°59'0 0.0
2018-Oct-28 20:03N 50°43' W 001°59'0 0.0
2018-Oct-28 19:57N 50°43' W 001°59'0 0.0
2018-Oct-28 19:21N 50°43' W 001°59'0 0.0
2018-Oct-28 18:57N 50°43' W 001°59'0 0.0
2018-Oct-28 18:21N 50°43' W 001°59'0 0.0
2018-Oct-28 18:03N 50°43' W 001°59'0 0.0
2018-Oct-28 17:57N 50°43' W 001°59'0 0.0
2018-Oct-28 17:21N 50°43' W 001°59'0 0.0
2018-Oct-28 17:03N 50°43' W 001°59'0 0.0
2018-Oct-28 16:57N 50°43' W 001°59'0 0.0
2018-Oct-28 16:27N 50°43' W 001°59'0 0.0
2018-Oct-28 16:03N 50°43' W 001°59'0 0.0
2018-Oct-28 15:57N 50°43' W 001°59'0 0.0
2018-Oct-28 15:27N 50°43' W 001°59'0 0.0
2018-Oct-28 15:03N 50°43' W 001°59'0 0.0
2018-Oct-28 14:57N 50°43' W 001°59'0 0.0
2018-Oct-28 14:27N 50°43' W 001°59'0 0.0
2018-Oct-28 13:27N 50°43' W 001°59'0 0.0
2018-Oct-28 13:03N 50°43' W 001°59'0 0.0
2018-Oct-28 12:57N 50°43' W 001°59'0 0.0
2018-Oct-28 12:27N 50°43' W 001°59'  
Track history (hours):
 
Tides and Currents Weather Stations Pressure Air Temp Water Temp Dewpoint Dewpoint Depression Visibility Wind Speed Wind Dir Waves Ship Positions

Tenacious (United Kingdom)

Ship's website: http://www.jst.org.uk/

Last reported at 2018-Nov-07 12:19 UTC. Time now 2018-Dec-18 11:27 UTC.
Position N 51°30' E 000°04'.
Warning: this ship's position is 40 days out of date.

Length 65 m; beam 10.6 m; draft 4.6 m.

Type: Sailing vessel. MMSI: 235000230.

Date/timePositionNaut miles runAvg speedWind from/ knotsBaromVisibWave heightAir tempDewpointWater temp
2018-Nov-07 12:19N 51°30' E 000°04'2 7.0
2018-Nov-07 12:02N 51°31' E 000°06'3 6.2
2018-Nov-07 11:32N 51°29' E 000°11'3 6.9
2018-Nov-07 11:03N 51°28' E 000°16'3 6.3
2018-Nov-07 10:32N 51°27' E 000°21'3 5.9
2018-Nov-07 10:03N 51°27' E 000°25'2 3.3
2018-Nov-07 09:32N 51°28' E 000°27'2 5.0
2018-Nov-07 09:03N 51°30' E 000°30'4 7.0
2018-Nov-07 08:32N 51°30' E 000°36'2 4.6
2018-Nov-07 08:00N 51°30' E 000°39'0 0.1
2018-Nov-07 07:27N 51°30' E 000°39'0 0.1
2018-Nov-07 07:00N 51°30' E 000°40'0 0.0
2018-Nov-07 06:30N 51°30' E 000°40'0 0.2
2018-Nov-07 06:00N 51°30' E 000°40'0 0.0
2018-Nov-07 05:30N 51°30' E 000°40'0 0.0
2018-Nov-07 05:00N 51°30' E 000°40'0 0.0
2018-Nov-07 04:30N 51°30' E 000°40'0 0.0
2018-Nov-06 23:30N 51°30' E 000°39'0 0.1
2018-Nov-06 23:03N 51°30' E 000°39'0 0.0
2018-Nov-06 23:00N 51°30' E 000°39'0 0.0
2018-Nov-06 22:00N 51°30' E 000°39'0 0.1
2018-Nov-06 21:30N 51°30' E 000°39'0 0.0
2018-Nov-06 21:03N 51°30' E 000°39'0 0.0
2018-Nov-06 21:00N 51°30' E 000°39'0 0.0
2018-Nov-06 20:30N 51°30' E 000°39'0 0.0
2018-Nov-06 20:03N 51°30' E 000°39'0 0.0
2018-Nov-06 20:00N 51°30' E 000°39'0 0.0
2018-Nov-06 19:27N 51°30' E 000°39'0 0.1
2018-Nov-06 19:03N 51°30' E 000°40'0 0.1
2018-Nov-06 19:00N 51°30' E 000°40'0 0.1
2018-Nov-06 18:30N 51°30' E 000°40'0 0.1
2018-Nov-06 18:03N 51°30' E 000°40'0 0.2
2018-Nov-06 18:00N 51°30' E 000°40'0 0.0
2018-Nov-06 17:30N 51°30' E 000°40'0 0.0
2018-Nov-06 17:03N 51°30' E 000°40'0 0.0
2018-Nov-06 17:00N 51°30' E 000°40'0 0.0
2018-Nov-06 16:30N 51°30' E 000°40'0 0.0
2018-Nov-06 16:03N 51°30' E 000°40'0 0.0
2018-Nov-06 16:00N 51°30' E 000°40'0 0.0
2018-Nov-06 15:30N 51°30' E 000°40'0 0.0
2018-Nov-06 15:03N 51°30' E 000°40'0 0.0
2018-Nov-06 15:00N 51°30' E 000°40'0 0.0
2018-Nov-06 14:30N 51°30' E 000°40'0 0.0
2018-Nov-06 14:00N 51°30' E 000°40'0 0.1
2018-Nov-06 13:30N 51°30' E 000°40'0 0.0
2018-Nov-06 13:03N 51°30' E 000°40'0 0.0
2018-Nov-06 13:00N 51°30' E 000°40'0 0.1
2018-Nov-06 12:30N 51°30' E 000°40'0 0.1
2018-Nov-06 12:03N 51°30' E 000°40'0 0.0
2018-Nov-06 12:00N 51°30' E 000°40'0 0.1
2018-Nov-06 11:30N 51°30' E 000°39'0 0.0
2018-Nov-06 11:00N 51°30' E 000°39'0 0.0
2018-Nov-06 10:30N 51°30' E 000°39'0 0.0
2018-Nov-06 10:00N 51°30' E 000°39'0 0.0
2018-Nov-06 09:30N 51°30' E 000°39'0 0.0
2018-Nov-06 09:03N 51°30' E 000°39'0 0.1
2018-Nov-06 09:00N 51°30' E 000°39'0 0.0
2018-Nov-06 08:30N 51°30' E 000°39'0 0.0
2018-Nov-06 08:03N 51°30' E 000°39'0 0.0
2018-Nov-06 08:00N 51°30' E 000°39'0 0.0
2018-Nov-06 07:30N 51°30' E 000°39'0 0.0
2018-Nov-06 07:03N 51°30' E 000°40'0 0.0
2018-Nov-06 07:00N 51°30' E 000°40'0 0.0
2018-Nov-06 06:30N 51°30' E 000°40'0 0.1
2018-Nov-06 06:03N 51°30' E 000°40'0 0.3
2018-Nov-06 06:00N 51°30' E 000°40'0 0.0
2018-Nov-06 05:30N 51°30' E 000°40'0 0.0
2018-Nov-06 05:03N 51°30' E 000°40'0 0.2
2018-Nov-06 05:00N 51°30' E 000°40'0 0.0
2018-Nov-06 04:30N 51°30' E 000°40'0 0.0
2018-Nov-06 04:00N 51°30' E 000°40'0 0.0
2018-Nov-06 03:30N 51°30' E 000°40'0 0.0
2018-Nov-06 03:03N 51°30' E 000°40'0 0.0
2018-Nov-06 03:00N 51°30' E 000°40'0 0.0
2018-Nov-06 02:30N 51°30' E 000°40'0 0.0
2018-Nov-06 02:03N 51°30' E 000°40'0 0.2
2018-Nov-06 02:00N 51°30' E 000°40'0 0.0
2018-Nov-06 01:30N 51°30' E 000°40'0 0.0
2018-Nov-06 00:30N 51°30' E 000°40'0 0.1
2018-Nov-05 23:27N 51°30' E 000°39'0 0.0
2018-Nov-05 23:03N 51°30' E 000°39'0 0.0
2018-Nov-05 23:00N 51°30' E 000°39'0 0.0
2018-Nov-05 22:27N 51°30' E 000°39'0 0.0
2018-Nov-05 22:03N 51°30' E 000°39'0 0.0
2018-Nov-05 22:00N 51°30' E 000°39'0 0.0
2018-Nov-05 21:30N 51°30' E 000°39'0 0.0
2018-Nov-05 21:03N 51°30' E 000°39'0 0.0
2018-Nov-05 21:00N 51°30' E 000°39'0 0.0
2018-Nov-05 20:30N 51°30' E 000°39'0 0.0
2018-Nov-05 20:03N 51°30' E 000°39'0 0.0
2018-Nov-05 20:00N 51°30' E 000°39'0 0.0
2018-Nov-05 19:30N 51°30' E 000°39'0 0.0
2018-Nov-05 19:03N 51°30' E 000°39'0 0.0
2018-Nov-05 19:00N 51°30' E 000°39'0 0.0
2018-Nov-05 18:30N 51°30' E 000°39'0 0.0
2018-Nov-05 18:03N 51°30' E 000°39'0 0.0
2018-Nov-05 18:00N 51°30' E 000°39'0 0.1
2018-Nov-05 17:27N 51°30' E 000°40'0 0.1
2018-Nov-05 17:03N 51°30' E 000°40'0 0.0
2018-Nov-05 16:57N 51°30' E 000°40'0 0.0
2018-Nov-05 16:30N 51°30' E 000°40'2 5.5
2018-Nov-05 16:03N 51°30' E 000°43'0 7.2
2018-Nov-05 16:00N 51°30' E 000°44'4 7.2
2018-Nov-05 15:30N 51°30' E 000°50'3 7.1
2018-Nov-05 15:03N 51°29' E 000°55'0 7.0
2018-Nov-05 15:00N 51°29' E 000°55'3 6.8
2018-Nov-05 14:30N 51°30' E 001°01'2 5.4
2018-Nov-05 14:03N 51°30' E 001°05'4 6.6
2018-Nov-05 13:30N 51°29' E 001°10'3 6.4
2018-Nov-05 13:03N 51°29' E 001°15'0 6.5
2018-Nov-05 13:00N 51°29' E 001°16'3 6.7
2018-Nov-05 12:31N 51°29' E 001°21'3 7.1
2018-Nov-05 12:03N 51°28' E 001°26'0 7.3
2018-Nov-05 12:01N 51°28' E 001°26'4 8.0
2018-Nov-05 11:30N 51°25' E 001°31'4 8.3
2018-Nov-05 11:04N 51°22' E 001°35'110.2
2018-Nov-05 11:01N 51°22' E 001°35'510.7
2018-Nov-05 10:30N 51°17' E 001°38'4 9.8
2018-Nov-05 10:03N 51°12' E 001°37'110.2
2018-Nov-05 10:00N 51°12' E 001°37'4 8.3
2018-Nov-05 09:30N 51°08' E 001°37'4 7.8
2018-Nov-05 09:02N 51°04' E 001°36'110.0
2018-Nov-05 08:56N 51°03' E 001°35'4 9.6
2018-Nov-05 08:30N 51°00' E 001°31'5 8.6
2018-Nov-05 07:53N 50°56' E 001°25'30 6.8
2018-Nov-05 03:29N 50°32' E 000°58'39 6.3
2018-Nov-04 21:14N 50°21' W 000°01'39 8.5
2018-Nov-04 16:42N 50°29' W 001°01'3 9.3
2018-Nov-04 16:26N 50°30' W 001°05'3 9.4
2018-Nov-04 16:03N 50°30' W 001°10'0 9.5
2018-Nov-04 16:00N 50°30' W 001°11'5 9.3
2018-Nov-04 15:31N 50°31' W 001°18'17 7.0
2018-Nov-04 13:04N 50°37' W 001°43'1 6.3
2018-Nov-04 12:59N 50°37' W 001°44'3 6.2
2018-Nov-04 12:30N 50°38' W 001°49'3 6.6
2018-Nov-04 12:02N 50°39' W 001°53'0 7.1
2018-Nov-04 12:00N 50°39' W 001°53'3 6.7
2018-Nov-04 11:30N 50°41' W 001°57'2 3.6
2018-Nov-04 10:58N 50°43' W 001°59'0 0.0
2018-Nov-04 10:28N 50°43' W 001°59'0 0.0
2018-Nov-04 09:52N 50°43' W 001°59'0 0.0
2018-Nov-04 09:22N 50°43' W 001°59'0 0.0
2018-Nov-04 08:58N 50°43' W 001°59'0 0.0
2018-Nov-04 08:16N 50°43' W 001°59'0 0.0
2018-Nov-04 07:58N 50°43' W 001°59'0 0.0
2018-Nov-04 07:28N 50°43' W 001°59'0 0.0
2018-Nov-04 06:34N 50°43' W 001°59'0 0.0
2018-Nov-04 06:04N 50°43' W 001°59'0 0.1
2018-Nov-04 05:58N 50°43' W 001°59'0 0.0
2018-Nov-04 05:22N 50°43' W 001°59'0 0.0
2018-Nov-04 04:58N 50°43' W 001°59'0 0.0
2018-Nov-04 04:28N 50°43' W 001°59'0 0.0
2018-Nov-04 02:22N 50°43' W 001°59'0 0.0
2018-Nov-04 01:58N 50°43' W 001°59'0 0.0
2018-Nov-04 01:10N 50°43' W 001°59'0 0.0
2018-Nov-04 00:34N 50°43' W 001°59'0 0.1
2018-Nov-04 00:28N 50°43' W 001°59'0 0.0
2018-Nov-03 23:46N 50°43' W 001°59'0 0.0
2018-Nov-03 18:58N 50°43' W 001°59'0 0.0
2018-Nov-03 18:28N 50°43' W 001°59'0 0.0
2018-Nov-03 18:04N 50°43' W 001°59'0 0.0
2018-Nov-03 17:52N 50°43' W 001°59'0 0.0
2018-Nov-03 17:27N 50°43' W 001°59'0 0.0
2018-Nov-03 16:39N 50°43' W 001°59'0 0.0
2018-Nov-03 16:15N 50°43' W 001°59'0 0.0
2018-Nov-03 16:03N 50°43' W 001°59'0 0.0
2018-Nov-03 15:57N 50°43' W 001°59'0 0.0
2018-Nov-03 15:27N 50°43' W 001°59'0 0.0
2018-Nov-03 14:39N 50°43' W 001°59'0 0.0
2018-Nov-03 13:39N 50°43' W 001°59'0 0.0
2018-Nov-03 13:09N 50°43' W 001°59'0 0.0
2018-Nov-03 12:57N 50°43' W 001°59'0 0.0
2018-Nov-03 12:09N 50°43' W 001°59'0 0.0
2018-Nov-03 11:57N 50°43' W 001°59'0 0.0
2018-Nov-03 11:27N 50°43' W 001°59'0 0.0
2018-Nov-03 11:03N 50°43' W 001°59'0 0.0
2018-Nov-03 10:45N 50°43' W 001°59'0 0.0
2018-Nov-03 10:27N 50°43' W 001°59'0 0.0
2018-Nov-03 09:09N 50°43' W 001°59'0 0.0
2018-Nov-03 08:51N 50°43' W 001°59'0 0.0
2018-Nov-03 08:27N 50°43' W 001°59'0 0.0
2018-Nov-03 08:03N 50°43' W 001°59'0 0.1
2018-Nov-03 07:57N 50°43' W 001°59'0 0.0
2018-Nov-03 07:27N 50°43' W 001°59'0 0.0
2018-Nov-03 06:57N 50°43' W 001°59'0 0.0
2018-Nov-03 06:09N 50°43' W 001°59'0 0.0
2018-Nov-03 05:51N 50°43' W 001°59'0 0.0
2018-Nov-03 05:27N 50°43' W 001°59'0 0.0
2018-Nov-03 05:03N 50°43' W 001°59'0 0.0
2018-Nov-03 03:33N 50°43' W 001°59'0 0.0
2018-Nov-03 01:09N 50°43' W 001°59'0 0.0
2018-Nov-03 01:03N 50°43' W 001°59'0 0.0
2018-Nov-03 00:57N 50°43' W 001°59'0 0.0
2018-Nov-03 00:21N 50°43' W 001°59'0 0.0
2018-Nov-03 00:03N 50°43' W 001°59'0 0.0
2018-Nov-02 23:57N 50°43' W 001°59'0 0.0
2018-Nov-02 23:27N 50°43' W 001°59'0 0.0
2018-Nov-02 23:03N 50°43' W 001°59'0 0.0
2018-Nov-02 22:57N 50°43' W 001°59'0 0.0
2018-Nov-02 22:21N 50°43' W 001°59'0 0.0
2018-Nov-02 21:39N 50°43' W 001°59'0 0.0
2018-Nov-02 21:03N 50°43' W 001°59'0 0.0
2018-Nov-02 20:57N 50°43' W 001°59'0 0.0
2018-Nov-02 20:27N 50°43' W 001°59'0 0.0
2018-Nov-02 20:03N 50°43' W 001°59'0 0.1
2018-Nov-02 19:57N 50°43' W 001°59'0 0.0
2018-Nov-02 19:21N 50°43' W 001°59'0 0.0
2018-Nov-02 18:57N 50°43' W 001°59'0 0.0
2018-Nov-02 18:30N 50°43' W 001°59'0 0.0
2018-Nov-02 18:03N 50°43' W 001°59'0 0.0
2018-Nov-02 18:00N 50°43' W 001°59'2 4.0
2018-Nov-02 17:31N 50°41' W 001°57'3 7.0
2018-Nov-02 17:03N 50°39' W 001°54'0 3.5
2018-Nov-02 17:00N 50°38' W 001°54'2 4.9
2018-Nov-02 16:30N 50°37' W 001°51'2 5.0
2018-Nov-02 16:03N 50°35' W 001°49'0 4.6
2018-Nov-02 16:00N 50°35' W 001°49'22 0.9
2018-Nov-01 14:16N 50°34' W 002°24'18 0.6
2018-Oct-31 09:45N 50°18' W 002°38'31 1.5
2018-Oct-30 13:54N 50°29' W 001°53'3 6.6
2018-Oct-30 13:30N 50°32' W 001°53'3 6.5
2018-Oct-30 13:03N 50°35' W 001°54'0 6.3
2018-Oct-30 13:00N 50°35' W 001°54'3 6.1
2018-Oct-30 12:30N 50°38' W 001°54'4 7.9
2018-Oct-30 12:03N 50°41' W 001°57'0 7.7
2018-Oct-30 12:00N 50°42' W 001°57'2 3.0
2018-Oct-30 11:28N 50°43' W 001°59'0 0.0
2018-Oct-30 10:58N 50°43' W 001°59'0 0.0
2018-Oct-30 10:28N 50°43' W 001°59'0 0.0
2018-Oct-30 09:52N 50°43' W 001°59'0 0.0
2018-Oct-30 09:28N 50°43' W 001°59'0 0.0
2018-Oct-30 08:52N 50°43' W 001°59'0 0.0
2018-Oct-30 08:28N 50°43' W 001°59'0 0.0
2018-Oct-30 07:58N 50°43' W 001°59'0 0.0
2018-Oct-30 07:28N 50°43' W 001°59'0 0.0
2018-Oct-30 06:58N 50°43' W 001°59'0 0.0
2018-Oct-30 06:28N 50°43' W 001°59'0 0.0
2018-Oct-30 05:58N 50°43' W 001°59'0 0.0
2018-Oct-30 05:28N 50°43' W 001°59'0 0.0
2018-Oct-30 05:04N 50°43' W 001°59'0 0.0
2018-Oct-30 04:52N 50°43' W 001°59'0 0.0
2018-Oct-30 04:28N 50°43' W 001°59'0 0.0
2018-Oct-30 03:58N 50°43' W 001°59'0 0.0
2018-Oct-30 03:27N 50°43' W 001°59'0 0.0
2018-Oct-30 02:57N 50°43' W 001°59'0 0.0
2018-Oct-30 02:21N 50°43' W 001°59'0 0.0
2018-Oct-30 01:57N 50°43' W 001°59'0 0.0
2018-Oct-30 01:27N 50°43' W 001°59'0 0.0
2018-Oct-30 01:03N 50°43' W 001°59'0 0.1
2018-Oct-30 00:57N 50°43' W 001°59'0 0.0
2018-Oct-30 00:27N 50°43' W 001°59'0 0.0
2018-Oct-30 00:03N 50°43' W 001°59'0 0.0
2018-Oct-29 23:57N 50°43' W 001°59'0 0.0
2018-Oct-29 23:27N 50°43' W 001°59'0 0.0
2018-Oct-29 23:03N 50°43' W 001°59'0 0.0
2018-Oct-29 22:57N 50°43' W 001°59'0 0.0
2018-Oct-29 22:27N 50°43' W 001°59'0 0.0
2018-Oct-29 22:03N 50°43' W 001°59'0 0.0
2018-Oct-29 21:57N 50°43' W 001°59'0 0.0
2018-Oct-29 21:27N 50°43' W 001°59'0 0.0
2018-Oct-29 20:51N 50°43' W 001°59'0 0.0
2018-Oct-29 20:21N 50°43' W 001°59'0 0.0
2018-Oct-29 20:03N 50°43' W 001°59'0 0.0
2018-Oct-29 19:57N 50°43' W 001°59'0 0.0
2018-Oct-29 19:27N 50°43' W 001°59'0 0.0
2018-Oct-29 19:03N 50°43' W 001°59'0 0.0
2018-Oct-29 18:45N 50°43' W 001°59'0 0.0
2018-Oct-29 18:27N 50°43' W 001°59'0 0.0
2018-Oct-29 18:03N 50°43' W 001°59'0 0.0
2018-Oct-29 17:57N 50°43' W 001°59'0 0.0
2018-Oct-29 17:27N 50°43' W 001°59'0 0.0
2018-Oct-29 16:57N 50°43' W 001°59'0 0.0
2018-Oct-29 16:27N 50°43' W 001°59'0 0.0
2018-Oct-29 15:51N 50°43' W 001°59'0 0.0
2018-Oct-29 15:27N 50°43' W 001°59'0 0.0
2018-Oct-29 15:03N 50°43' W 001°59'0 0.0
2018-Oct-29 14:57N 50°43' W 001°59'0 0.0
2018-Oct-29 14:21N 50°43' W 001°59'0 0.0
2018-Oct-29 13:57N 50°43' W 001°59'0 0.0
2018-Oct-29 13:27N 50°43' W 001°59'0 0.0
2018-Oct-29 13:03N 50°43' W 001°59'0 0.0
2018-Oct-29 12:57N 50°43' W 001°59'0 0.0
2018-Oct-29 12:27N 50°43' W 001°59'0 0.0
2018-Oct-29 12:03N 50°43' W 001°59'0 0.1
2018-Oct-29 11:57N 50°43' W 001°59'0 0.0
2018-Oct-29 11:21N 50°43' W 001°59'0 0.0
2018-Oct-29 11:03N 50°43' W 001°59'0 0.0
2018-Oct-29 10:39N 50°43' W 001°59'0 0.0
2018-Oct-29 10:27N 50°43' W 001°59'0 0.0
2018-Oct-29 10:03N 50°43' W 001°59'0 0.0
2018-Oct-29 09:57N 50°43' W 001°59'0 0.0
2018-Oct-29 09:27N 50°43' W 001°59'0 0.0
2018-Oct-29 09:03N 50°43' W 001°59'0 0.0
2018-Oct-29 08:39N 50°43' W 001°59'0 0.0
2018-Oct-29 08:21N 50°43' W 001°59'0 0.0
2018-Oct-29 08:03N 50°43' W 001°59'0 0.0
2018-Oct-29 07:57N 50°43' W 001°59'0 0.0
2018-Oct-29 07:27N 50°43' W 001°59'0 0.0
2018-Oct-29 07:03N 50°43' W 001°59'0 0.0
2018-Oct-29 06:57N 50°43' W 001°59'0 0.0
2018-Oct-29 06:27N 50°43' W 001°59'0 0.0
2018-Oct-29 06:03N 50°43' W 001°59'0 0.0
2018-Oct-29 05:57N 50°43' W 001°59'0 0.0
2018-Oct-29 05:27N 50°43' W 001°59'0 0.0
2018-Oct-29 05:03N 50°43' W 001°59'0 0.0
2018-Oct-29 04:51N 50°43' W 001°59'0 0.0
2018-Oct-29 04:27N 50°43' W 001°59'0 0.0
2018-Oct-29 04:03N 50°43' W 001°59'0 0.0
2018-Oct-29 03:57N 50°43' W 001°59'0 0.0
2018-Oct-29 03:27N 50°43' W 001°59'0 0.0
2018-Oct-29 03:03N 50°43' W 001°59'0 0.0
2018-Oct-29 02:57N 50°43' W 001°59'0 0.0
2018-Oct-29 02:27N 50°43' W 001°59'0 0.0
2018-Oct-29 02:03N 50°43' W 001°59'0 0.0
2018-Oct-29 01:57N 50°43' W 001°59'0 0.0
2018-Oct-29 01:27N 50°43' W 001°59'0 0.0
2018-Oct-29 01:03N 50°43' W 001°59'0 0.0
2018-Oct-29 00:57N 50°43' W 001°59'0 0.0
2018-Oct-29 00:27N 50°43' W 001°59'0 0.0
2018-Oct-29 00:03N 50°43' W 001°59'0 0.0
2018-Oct-28 23:57N 50°43' W 001°59'0 0.0
2018-Oct-28 23:21N 50°43' W 001°59'0 0.0
2018-Oct-28 23:03N 50°43' W 001°59'0 0.0
2018-Oct-28 22:57N 50°43' W 001°59'0 0.0
2018-Oct-28 22:27N 50°43' W 001°59'0 0.0
2018-Oct-28 21:57N 50°43' W 001°59'0 0.0
2018-Oct-28 21:27N 50°43' W 001°59'0 0.0
2018-Oct-28 21:03N 50°43' W 001°59'0 0.0
2018-Oct-28 20:57N 50°43' W 001°59'0 0.0
2018-Oct-28 20:27N 50°43' W 001°59'0 0.0
2018-Oct-28 20:03N 50°43' W 001°59'0 0.0
2018-Oct-28 19:57N 50°43' W 001°59'0 0.0
2018-Oct-28 19:21N 50°43' W 001°59'0 0.0
2018-Oct-28 18:57N 50°43' W 001°59'0 0.0
2018-Oct-28 18:21N 50°43' W 001°59'0 0.0
2018-Oct-28 18:03N 50°43' W 001°59'0 0.0
2018-Oct-28 17:57N 50°43' W 001°59'0 0.0
2018-Oct-28 17:21N 50°43' W 001°59'0 0.0
2018-Oct-28 17:03N 50°43' W 001°59'0 0.0
2018-Oct-28 16:57N 50°43' W 001°59'0 0.0
2018-Oct-28 16:27N 50°43' W 001°59'0 0.0
2018-Oct-28 16:03N 50°43' W 001°59'0 0.0
2018-Oct-28 15:57N 50°43' W 001°59'0 0.0
2018-Oct-28 15:27N 50°43' W 001°59'0 0.0
2018-Oct-28 15:03N 50°43' W 001°59'0 0.0
2018-Oct-28 14:57N 50°43' W 001°59'0 0.0
2018-Oct-28 14:27N 50°43' W 001°59'0 0.0
2018-Oct-28 13:27N 50°43' W 001°59'0 0.0
2018-Oct-28 13:03N 50°43' W 001°59'0 0.0
2018-Oct-28 12:57N 50°43' W 001°59'0 0.0
2018-Oct-28 12:27N 50°43' W 001°59'  

Dump ship's entire track history